sensor_id;sensor_type;location;lat;lon;timestamp;P1;durP1;ratioP1;P2;durP2;ratioP2
70715;SDS011;59053;50.832;12.882;2022-11-15T00:05:54;29.60;;;10.38;;
70715;SDS011;59053;50.832;12.882;2022-11-15T00:08:38;30.92;;;11.70;;
70715;SDS011;59053;50.832;12.882;2022-11-15T00:11:22;31.37;;;11.47;;
70715;SDS011;59053;50.832;12.882;2022-11-15T00:14:06;30.85;;;11.13;;
70715;SDS011;59053;50.832;12.882;2022-11-15T00:16:50;35.63;;;11.75;;
70715;SDS011;59053;50.832;12.882;2022-11-15T00:19:34;31.75;;;10.38;;
70715;SDS011;59053;50.832;12.882;2022-11-15T00:22:18;33.15;;;10.85;;
70715;SDS011;59053;50.832;12.882;2022-11-15T00:25:02;33.27;;;11.23;;
70715;SDS011;59053;50.832;12.882;2022-11-15T00:27:46;32.45;;;10.70;;
70715;SDS011;59053;50.832;12.882;2022-11-15T00:30:30;36.83;;;11.07;;
70715;SDS011;59053;50.832;12.882;2022-11-15T00:33:14;33.40;;;11.02;;
70715;SDS011;59053;50.832;12.882;2022-11-15T00:36:05;33.58;;;11.18;;
70715;SDS011;59053;50.832;12.882;2022-11-15T00:38:49;32.40;;;10.67;;
70715;SDS011;59053;50.832;12.882;2022-11-15T00:41:33;33.97;;;11.65;;
70715;SDS011;59053;50.832;12.882;2022-11-15T00:44:17;30.65;;;10.35;;
70715;SDS011;59053;50.832;12.882;2022-11-15T00:47:01;28.60;;;9.93;;
70715;SDS011;59053;50.832;12.882;2022-11-15T00:49:45;32.15;;;10.55;;
70715;SDS011;59053;50.832;12.882;2022-11-15T00:52:29;30.47;;;10.47;;
70715;SDS011;59053;50.832;12.882;2022-11-15T00:55:13;32.88;;;10.80;;
70715;SDS011;59053;50.832;12.882;2022-11-15T00:57:58;29.60;;;10.15;;
70715;SDS011;59053;50.832;12.882;2022-11-15T01:00:42;30.75;;;10.25;;
70715;SDS011;59053;50.832;12.882;2022-11-15T01:03:26;29.17;;;10.18;;
70715;SDS011;59053;50.832;12.882;2022-11-15T01:06:10;30.83;;;9.90;;
70715;SDS011;59053;50.832;12.882;2022-11-15T01:08:55;29.30;;;9.40;;
70715;SDS011;59053;50.832;12.882;2022-11-15T01:11:39;30.17;;;10.13;;
70715;SDS011;59053;50.832;12.882;2022-11-15T01:14:23;29.50;;;10.57;;
70715;SDS011;59053;50.832;12.882;2022-11-15T01:17:07;32.97;;;10.07;;
70715;SDS011;59053;50.832;12.882;2022-11-15T01:19:51;27.27;;;9.13;;
70715;SDS011;59053;50.832;12.882;2022-11-15T01:22:34;32.05;;;10.25;;
70715;SDS011;59053;50.832;12.882;2022-11-15T01:25:19;30.52;;;9.43;;
70715;SDS011;59053;50.832;12.882;2022-11-15T01:28:02;30.92;;;10.65;;
70715;SDS011;59053;50.832;12.882;2022-11-15T01:30:47;31.75;;;10.00;;
70715;SDS011;59053;50.832;12.882;2022-11-15T01:33:33;29.13;;;9.83;;
70715;SDS011;59053;50.832;12.882;2022-11-15T01:36:18;28.63;;;9.95;;
70715;SDS011;59053;50.832;12.882;2022-11-15T01:39:03;27.38;;;9.55;;
70715;SDS011;59053;50.832;12.882;2022-11-15T01:41:46;27.30;;;9.25;;
70715;SDS011;59053;50.832;12.882;2022-11-15T01:47:57;27.10;;;9.50;;
70715;SDS011;59053;50.832;12.882;2022-11-15T01:50:23;31.77;;;9.52;;
70715;SDS011;59053;50.832;12.882;2022-11-15T01:53:08;28.38;;;9.55;;
70715;SDS011;59053;50.832;12.882;2022-11-15T01:55:54;28.33;;;9.30;;
70715;SDS011;59053;50.832;12.882;2022-11-15T01:58:38;27.20;;;9.23;;
70715;SDS011;59053;50.832;12.882;2022-11-15T02:01:24;29.80;;;10.07;;
70715;SDS011;59053;50.832;12.882;2022-11-15T02:04:13;27.90;;;9.35;;
70715;SDS011;59053;50.832;12.882;2022-11-15T02:10:13;30.38;;;9.75;;
70715;SDS011;59053;50.832;12.882;2022-11-15T02:12:57;28.23;;;9.48;;
70715;SDS011;59053;50.832;12.882;2022-11-15T02:18:49;31.70;;;10.40;;
70715;SDS011;59053;50.832;12.882;2022-11-15T02:30:17;27.00;;;9.93;;
70715;SDS011;59053;50.832;12.882;2022-11-15T02:33:18;26.13;;;9.43;;
70715;SDS011;59053;50.832;12.882;2022-11-15T02:36:12;28.23;;;9.50;;
70715;SDS011;59053;50.832;12.882;2022-11-15T02:38:59;27.60;;;9.05;;
70715;SDS011;59053;50.832;12.882;2022-11-15T02:41:57;29.42;;;9.02;;
70715;SDS011;59053;50.832;12.882;2022-11-15T02:44:45;30.23;;;9.70;;
70715;SDS011;59053;50.832;12.882;2022-11-15T02:47:29;27.75;;;8.85;;
70715;SDS011;59053;50.832;12.882;2022-11-15T02:50:16;26.77;;;9.55;;
70715;SDS011;59053;50.832;12.882;2022-11-15T02:56:20;28.80;;;9.57;;
70715;SDS011;59053;50.832;12.882;2022-11-15T03:07:29;27.05;;;9.82;;
70715;SDS011;59053;50.832;12.882;2022-11-15T03:15:56;28.13;;;9.45;;
70715;SDS011;59053;50.832;12.882;2022-11-15T03:18:41;30.92;;;10.02;;
70715;SDS011;59053;50.832;12.882;2022-11-15T03:21:27;27.55;;;9.55;;
70715;SDS011;59053;50.832;12.882;2022-11-15T03:24:11;29.80;;;9.90;;
70715;SDS011;59053;50.832;12.882;2022-11-15T03:26:56;31.00;;;9.87;;
70715;SDS011;59053;50.832;12.882;2022-11-15T03:29:42;30.02;;;9.88;;
70715;SDS011;59053;50.832;12.882;2022-11-15T03:32:28;28.48;;;9.68;;
70715;SDS011;59053;50.832;12.882;2022-11-15T03:35:23;28.08;;;10.00;;
70715;SDS011;59053;50.832;12.882;2022-11-15T03:38:22;30.50;;;9.95;;
70715;SDS011;59053;50.832;12.882;2022-11-15T03:41:07;33.80;;;10.90;;
70715;SDS011;59053;50.832;12.882;2022-11-15T03:43:57;31.67;;;10.88;;
70715;SDS011;59053;50.832;12.882;2022-11-15T03:46:46;31.70;;;11.35;;
70715;SDS011;59053;50.832;12.882;2022-11-15T03:49:35;32.63;;;11.63;;
70715;SDS011;59053;50.832;12.882;2022-11-15T03:52:20;27.63;;;10.63;;
70715;SDS011;59053;50.832;12.882;2022-11-15T03:55:06;30.73;;;11.03;;
70715;SDS011;59053;50.832;12.882;2022-11-15T03:57:51;29.45;;;9.68;;
70715;SDS011;59053;50.832;12.882;2022-11-15T04:00:36;32.17;;;10.25;;
70715;SDS011;59053;50.832;12.882;2022-11-15T04:03:20;29.05;;;10.70;;
70715;SDS011;59053;50.832;12.882;2022-11-15T04:06:04;29.80;;;10.43;;
70715;SDS011;59053;50.832;12.882;2022-11-15T04:08:48;27.77;;;10.60;;
70715;SDS011;59053;50.832;12.882;2022-11-15T04:11:32;30.67;;;10.18;;
70715;SDS011;59053;50.832;12.882;2022-11-15T04:14:15;30.48;;;9.82;;
70715;SDS011;59053;50.832;12.882;2022-11-15T04:16:59;30.65;;;10.63;;
70715;SDS011;59053;50.832;12.882;2022-11-15T04:19:43;26.80;;;9.65;;
70715;SDS011;59053;50.832;12.882;2022-11-15T04:22:46;28.03;;;9.90;;
70715;SDS011;59053;50.832;12.882;2022-11-15T04:25:49;27.45;;;9.68;;
70715;SDS011;59053;50.832;12.882;2022-11-15T04:28:34;32.03;;;10.25;;
70715;SDS011;59053;50.832;12.882;2022-11-15T04:31:18;30.75;;;10.00;;
70715;SDS011;59053;50.832;12.882;2022-11-15T04:34:02;30.60;;;10.20;;
70715;SDS011;59053;50.832;12.882;2022-11-15T04:36:46;28.37;;;10.23;;
70715;SDS011;59053;50.832;12.882;2022-11-15T04:39:48;31.23;;;10.52;;
70715;SDS011;59053;50.832;12.882;2022-11-15T04:42:32;34.95;;;11.40;;
70715;SDS011;59053;50.832;12.882;2022-11-15T04:45:16;32.15;;;10.93;;
70715;SDS011;59053;50.832;12.882;2022-11-15T04:48:00;32.58;;;11.00;;
70715;SDS011;59053;50.832;12.882;2022-11-15T04:50:44;27.73;;;9.93;;
70715;SDS011;59053;50.832;12.882;2022-11-15T04:53:30;30.15;;;10.23;;
70715;SDS011;59053;50.832;12.882;2022-11-15T04:56:14;29.15;;;10.07;;
70715;SDS011;59053;50.832;12.882;2022-11-15T04:58:58;28.52;;;10.32;;
70715;SDS011;59053;50.832;12.882;2022-11-15T05:01:43;28.65;;;10.52;;
70715;SDS011;59053;50.832;12.882;2022-11-15T05:04:27;30.17;;;10.07;;
70715;SDS011;59053;50.832;12.882;2022-11-15T05:07:18;28.67;;;10.00;;
70715;SDS011;59053;50.832;12.882;2022-11-15T05:10:02;30.02;;;9.95;;
70715;SDS011;59053;50.832;12.882;2022-11-15T05:12:46;31.80;;;10.27;;
70715;SDS011;59053;50.832;12.882;2022-11-15T05:15:30;27.50;;;9.40;;
70715;SDS011;59053;50.832;12.882;2022-11-15T05:18:14;27.37;;;9.67;;
70715;SDS011;59053;50.832;12.882;2022-11-15T05:21:05;27.20;;;9.40;;
70715;SDS011;59053;50.832;12.882;2022-11-15T05:23:49;27.15;;;9.07;;
70715;SDS011;59053;50.832;12.882;2022-11-15T05:26:33;30.05;;;9.40;;
70715;SDS011;59053;50.832;12.882;2022-11-15T05:29:17;27.70;;;9.65;;
70715;SDS011;59053;50.832;12.882;2022-11-15T05:32:00;26.67;;;9.03;;
70715;SDS011;59053;50.832;12.882;2022-11-15T05:34:44;26.73;;;8.77;;
70715;SDS011;59053;50.832;12.882;2022-11-15T05:37:39;25.33;;;8.73;;
70715;SDS011;59053;50.832;12.882;2022-11-15T05:43:47;22.33;;;8.10;;
70715;SDS011;59053;50.832;12.882;2022-11-15T05:46:32;24.50;;;8.53;;
70715;SDS011;59053;50.832;12.882;2022-11-15T05:52:43;22.08;;;8.30;;
70715;SDS011;59053;50.832;12.882;2022-11-15T05:55:28;25.08;;;8.30;;
70715;SDS011;59053;50.832;12.882;2022-11-15T05:58:25;26.98;;;9.13;;
70715;SDS011;59053;50.832;12.882;2022-11-15T06:01:24;29.10;;;9.10;;
70715;SDS011;59053;50.832;12.882;2022-11-15T06:04:19;29.77;;;9.73;;
70715;SDS011;59053;50.832;12.882;2022-11-15T06:10:05;28.95;;;9.43;;
70715;SDS011;59053;50.832;12.882;2022-11-15T06:12:56;26.90;;;9.57;;
70715;SDS011;59053;50.832;12.882;2022-11-15T06:18:56;26.17;;;8.63;;
70715;SDS011;59053;50.832;12.882;2022-11-15T06:21:41;28.23;;;8.75;;
70715;SDS011;59053;50.832;12.882;2022-11-15T06:24:25;26.58;;;8.52;;
70715;SDS011;59053;50.832;12.882;2022-11-15T06:27:09;24.55;;;8.10;;
70715;SDS011;59053;50.832;12.882;2022-11-15T06:29:53;24.60;;;8.07;;
70715;SDS011;59053;50.832;12.882;2022-11-15T06:32:37;25.30;;;7.95;;
70715;SDS011;59053;50.832;12.882;2022-11-15T06:35:30;32.60;;;8.90;;
70715;SDS011;59053;50.832;12.882;2022-11-15T06:38:28;22.52;;;8.25;;
70715;SDS011;59053;50.832;12.882;2022-11-15T06:41:13;23.85;;;7.43;;
70715;SDS011;59053;50.832;12.882;2022-11-15T06:43:57;23.93;;;9.17;;
70715;SDS011;59053;50.832;12.882;2022-11-15T06:46:50;31.83;;;12.98;;
70715;SDS011;59053;50.832;12.882;2022-11-15T06:49:34;26.83;;;8.32;;
70715;SDS011;59053;50.832;12.882;2022-11-15T06:52:18;23.05;;;7.88;;
70715;SDS011;59053;50.832;12.882;2022-11-15T06:55:03;23.17;;;8.27;;
70715;SDS011;59053;50.832;12.882;2022-11-15T06:57:58;22.77;;;8.57;;
70715;SDS011;59053;50.832;12.882;2022-11-15T07:00:42;24.02;;;8.07;;
70715;SDS011;59053;50.832;12.882;2022-11-15T07:03:26;24.00;;;8.15;;
70715;SDS011;59053;50.832;12.882;2022-11-15T07:09:25;25.27;;;8.35;;
70715;SDS011;59053;50.832;12.882;2022-11-15T07:12:10;28.23;;;8.03;;
70715;SDS011;59053;50.832;12.882;2022-11-15T07:14:54;19.73;;;7.90;;
70715;SDS011;59053;50.832;12.882;2022-11-15T07:23:44;25.10;;;9.38;;
70715;SDS011;59053;50.832;12.882;2022-11-15T07:26:27;25.03;;;8.90;;
70715;SDS011;59053;50.832;12.882;2022-11-15T07:29:11;25.95;;;9.07;;
70715;SDS011;59053;50.832;12.882;2022-11-15T07:31:55;22.20;;;8.60;;
70715;SDS011;59053;50.832;12.882;2022-11-15T07:34:40;25.73;;;8.93;;
70715;SDS011;59053;50.832;12.882;2022-11-15T07:37:24;25.95;;;9.00;;
70715;SDS011;59053;50.832;12.882;2022-11-15T07:40:08;23.10;;;8.50;;
70715;SDS011;59053;50.832;12.882;2022-11-15T07:42:52;25.80;;;8.65;;
70715;SDS011;59053;50.832;12.882;2022-11-15T07:45:44;27.25;;;9.48;;
70715;SDS011;59053;50.832;12.882;2022-11-15T07:48:30;24.90;;;8.68;;
70715;SDS011;59053;50.832;12.882;2022-11-15T07:51:14;24.77;;;9.27;;
70715;SDS011;59053;50.832;12.882;2022-11-15T07:53:59;25.17;;;9.03;;
70715;SDS011;59053;50.832;12.882;2022-11-15T07:56:43;25.60;;;9.40;;
70715;SDS011;59053;50.832;12.882;2022-11-15T07:59:26;25.83;;;9.32;;
70715;SDS011;59053;50.832;12.882;2022-11-15T08:02:10;21.52;;;8.88;;
70715;SDS011;59053;50.832;12.882;2022-11-15T08:04:55;29.13;;;9.57;;
70715;SDS011;59053;50.832;12.882;2022-11-15T08:07:39;24.53;;;9.50;;
70715;SDS011;59053;50.832;12.882;2022-11-15T08:10:24;27.70;;;10.48;;
70715;SDS011;59053;50.832;12.882;2022-11-15T08:13:08;26.13;;;10.40;;
70715;SDS011;59053;50.832;12.882;2022-11-15T08:15:57;32.35;;;11.27;;
70715;SDS011;59053;50.832;12.882;2022-11-15T08:18:41;26.52;;;10.73;;
70715;SDS011;59053;50.832;12.882;2022-11-15T08:21:24;29.33;;;10.20;;
70715;SDS011;59053;50.832;12.882;2022-11-15T08:24:09;28.20;;;9.93;;
70715;SDS011;59053;50.832;12.882;2022-11-15T08:26:53;25.98;;;10.23;;
70715;SDS011;59053;50.832;12.882;2022-11-15T08:29:37;26.70;;;9.32;;
70715;SDS011;59053;50.832;12.882;2022-11-15T08:32:21;23.95;;;8.60;;
70715;SDS011;59053;50.832;12.882;2022-11-15T08:35:05;19.30;;;7.60;;
70715;SDS011;59053;50.832;12.882;2022-11-15T08:37:50;19.13;;;7.07;;
70715;SDS011;59053;50.832;12.882;2022-11-15T08:40:36;21.98;;;6.90;;
70715;SDS011;59053;50.832;12.882;2022-11-15T08:43:20;16.70;;;6.50;;
70715;SDS011;59053;50.832;12.882;2022-11-15T08:46:03;16.80;;;6.47;;
70715;SDS011;59053;50.832;12.882;2022-11-15T08:48:47;14.73;;;6.07;;
70715;SDS011;59053;50.832;12.882;2022-11-15T08:51:31;16.58;;;6.32;;
70715;SDS011;59053;50.832;12.882;2022-11-15T08:54:15;14.90;;;6.40;;
70715;SDS011;59053;50.832;12.882;2022-11-15T08:57:00;16.17;;;6.30;;
70715;SDS011;59053;50.832;12.882;2022-11-15T08:59:44;13.02;;;5.38;;
70715;SDS011;59053;50.832;12.882;2022-11-15T09:02:28;13.73;;;5.10;;
70715;SDS011;59053;50.832;12.882;2022-11-15T09:05:12;16.23;;;5.78;;
70715;SDS011;59053;50.832;12.882;2022-11-15T09:07:56;13.38;;;5.15;;
70715;SDS011;59053;50.832;12.882;2022-11-15T09:10:39;11.73;;;4.93;;
70715;SDS011;59053;50.832;12.882;2022-11-15T09:13:26;15.30;;;5.40;;
70715;SDS011;59053;50.832;12.882;2022-11-15T09:16:10;12.83;;;5.40;;
70715;SDS011;59053;50.832;12.882;2022-11-15T09:18:56;10.82;;;4.97;;
70715;SDS011;59053;50.832;12.882;2022-11-15T09:21:39;12.80;;;4.30;;
70715;SDS011;59053;50.832;12.882;2022-11-15T09:24:23;12.30;;;4.72;;
70715;SDS011;59053;50.832;12.882;2022-11-15T09:27:07;11.93;;;4.80;;
70715;SDS011;59053;50.832;12.882;2022-11-15T09:29:51;12.93;;;5.17;;
70715;SDS011;59053;50.832;12.882;2022-11-15T09:32:35;10.30;;;4.55;;
70715;SDS011;59053;50.832;12.882;2022-11-15T09:35:19;10.63;;;4.70;;
70715;SDS011;59053;50.832;12.882;2022-11-15T09:38:03;12.05;;;4.90;;
70715;SDS011;59053;50.832;12.882;2022-11-15T09:40:49;13.07;;;4.70;;
70715;SDS011;59053;50.832;12.882;2022-11-15T09:43:54;12.57;;;4.50;;
70715;SDS011;59053;50.832;12.882;2022-11-15T09:49:27;11.93;;;5.03;;
70715;SDS011;59053;50.832;12.882;2022-11-15T09:52:06;9.75;;;4.22;;
70715;SDS011;59053;50.832;12.882;2022-11-15T09:54:36;10.45;;;4.20;;
70715;SDS011;59053;50.832;12.882;2022-11-15T10:04:42;7.90;;;3.70;;
70715;SDS011;59053;50.832;12.882;2022-11-15T10:09:45;8.43;;;3.80;;
70715;SDS011;59053;50.832;12.882;2022-11-15T10:12:12;6.55;;;3.40;;
70715;SDS011;59053;50.832;12.882;2022-11-15T10:14:40;13.20;;;5.75;;
70715;SDS011;59053;50.832;12.882;2022-11-15T10:17:19;10.50;;;3.47;;
70715;SDS011;59053;50.832;12.882;2022-11-15T10:22:33;8.80;;;3.60;;
70715;SDS011;59053;50.832;12.882;2022-11-15T10:25:45;5.88;;;3.00;;
70715;SDS011;59053;50.832;12.882;2022-11-15T10:30:34;7.90;;;3.13;;
70715;SDS011;59053;50.832;12.882;2022-11-15T10:33:08;7.07;;;3.20;;
70715;SDS011;59053;50.832;12.882;2022-11-15T10:35:35;5.93;;;3.03;;
70715;SDS011;59053;50.832;12.882;2022-11-15T10:38:08;7.17;;;2.83;;
70715;SDS011;59053;50.832;12.882;2022-11-15T10:40:34;6.38;;;2.80;;
70715;SDS011;59053;50.832;12.882;2022-11-15T10:45:31;7.90;;;2.60;;
70715;SDS011;59053;50.832;12.882;2022-11-15T10:50:37;6.85;;;2.83;;
70715;SDS011;59053;50.832;12.882;2022-11-15T10:53:02;8.03;;;3.60;;
70715;SDS011;59053;50.832;12.882;2022-11-15T10:55:29;9.47;;;3.53;;
70715;SDS011;59053;50.832;12.882;2022-11-15T10:58:03;9.53;;;3.60;;
70715;SDS011;59053;50.832;12.882;2022-11-15T11:00:37;7.18;;;2.90;;
70715;SDS011;59053;50.832;12.882;2022-11-15T11:05:50;7.35;;;2.70;;
70715;SDS011;59053;50.832;12.882;2022-11-15T11:08:27;7.35;;;2.90;;
70715;SDS011;59053;50.832;12.882;2022-11-15T11:10:53;5.87;;;2.43;;
70715;SDS011;59053;50.832;12.882;2022-11-15T11:21:18;8.30;;;2.70;;
70715;SDS011;59053;50.832;12.882;2022-11-15T11:23:52;7.43;;;2.47;;
70715;SDS011;59053;50.832;12.882;2022-11-15T11:36:48;8.10;;;3.42;;
70715;SDS011;59053;50.832;12.882;2022-11-15T11:39:23;4.80;;;2.47;;
70715;SDS011;59053;50.832;12.882;2022-11-15T11:41:56;6.10;;;2.10;;
70715;SDS011;59053;50.832;12.882;2022-11-15T11:44:27;6.07;;;2.35;;
70715;SDS011;59053;50.832;12.882;2022-11-15T11:54:35;5.88;;;2.30;;
70715;SDS011;59053;50.832;12.882;2022-11-15T11:57:07;5.60;;;2.30;;
70715;SDS011;59053;50.832;12.882;2022-11-15T11:59:43;4.65;;;2.22;;
70715;SDS011;59053;50.832;12.882;2022-11-15T12:02:14;6.00;;;2.20;;
70715;SDS011;59053;50.832;12.882;2022-11-15T12:04:42;6.03;;;2.13;;
70715;SDS011;59053;50.832;12.882;2022-11-15T12:14:55;4.70;;;2.07;;
70715;SDS011;59053;50.832;12.882;2022-11-15T12:17:23;4.82;;;2.17;;
70715;SDS011;59053;50.832;12.882;2022-11-15T12:19:49;5.05;;;2.33;;
70715;SDS011;59053;50.832;12.882;2022-11-15T12:22:21;5.13;;;2.10;;
70715;SDS011;59053;50.832;12.882;2022-11-15T12:27:59;4.73;;;2.10;;
70715;SDS011;59053;50.832;12.882;2022-11-15T12:30:00;6.32;;;2.00;;
70715;SDS011;59053;50.832;12.882;2022-11-15T12:32:34;4.35;;;2.20;;
70715;SDS011;59053;50.832;12.882;2022-11-15T12:35:01;6.23;;;1.80;;
70715;SDS011;59053;50.832;12.882;2022-11-15T12:41:15;5.05;;;1.80;;
70715;SDS011;59053;50.832;12.882;2022-11-15T12:43:48;5.18;;;1.77;;
70715;SDS011;59053;50.832;12.882;2022-11-15T12:48:58;5.10;;;2.47;;
70715;SDS011;59053;50.832;12.882;2022-11-15T13:02:19;5.07;;;2.00;;
70715;SDS011;59053;50.832;12.882;2022-11-15T13:04:46;4.93;;;1.80;;
70715;SDS011;59053;50.832;12.882;2022-11-15T13:07:58;3.70;;;1.90;;
70715;SDS011;59053;50.832;12.882;2022-11-15T13:20:17;3.50;;;2.00;;
70715;SDS011;59053;50.832;12.882;2022-11-15T13:22:47;3.77;;;1.97;;
70715;SDS011;59053;50.832;12.882;2022-11-15T13:27:52;5.05;;;2.45;;
70715;SDS011;59053;50.832;12.882;2022-11-15T13:30:23;7.00;;;2.30;;
70715;SDS011;59053;50.832;12.882;2022-11-15T13:32:49;4.47;;;2.20;;
70715;SDS011;59053;50.832;12.882;2022-11-15T13:35:21;5.07;;;2.53;;
70715;SDS011;59053;50.832;12.882;2022-11-15T13:37:47;5.28;;;2.33;;
70715;SDS011;59053;50.832;12.882;2022-11-15T13:40:17;6.70;;;2.20;;
70715;SDS011;59053;50.832;12.882;2022-11-15T13:45:20;5.43;;;2.40;;
70715;SDS011;59053;50.832;12.882;2022-11-15T13:47:50;8.13;;;2.60;;
70715;SDS011;59053;50.832;12.882;2022-11-15T13:50:16;7.10;;;2.30;;
70715;SDS011;59053;50.832;12.882;2022-11-15T13:52:42;4.60;;;2.33;;
70715;SDS011;59053;50.832;12.882;2022-11-15T13:55:23;7.07;;;2.30;;
70715;SDS011;59053;50.832;12.882;2022-11-15T13:57:58;5.50;;;2.30;;
70715;SDS011;59053;50.832;12.882;2022-11-15T14:02:49;6.17;;;2.40;;
70715;SDS011;59053;50.832;12.882;2022-11-15T14:05:16;6.10;;;2.45;;
70715;SDS011;59053;50.832;12.882;2022-11-15T14:07:52;5.05;;;2.40;;
70715;SDS011;59053;50.832;12.882;2022-11-15T14:10:36;7.13;;;2.90;;
70715;SDS011;59053;50.832;12.882;2022-11-15T14:13:02;5.90;;;2.47;;
70715;SDS011;59053;50.832;12.882;2022-11-15T14:17:53;6.30;;;2.60;;
70715;SDS011;59053;50.832;12.882;2022-11-15T14:20:31;5.38;;;2.58;;
70715;SDS011;59053;50.832;12.882;2022-11-15T14:23:04;5.75;;;2.80;;
70715;SDS011;59053;50.832;12.882;2022-11-15T14:28:28;8.98;;;3.67;;
70715;SDS011;59053;50.832;12.882;2022-11-15T14:30:55;5.28;;;2.63;;
70715;SDS011;59053;50.832;12.882;2022-11-15T14:38:21;13.57;;;3.30;;
70715;SDS011;59053;50.832;12.882;2022-11-15T14:40:46;8.60;;;2.70;;
70715;SDS011;59053;50.832;12.882;2022-11-15T14:43:12;8.70;;;2.43;;
70715;SDS011;59053;50.832;12.882;2022-11-15T14:45:38;7.03;;;2.75;;
70715;SDS011;59053;50.832;12.882;2022-11-15T14:48:03;8.77;;;3.00;;
70715;SDS011;59053;50.832;12.882;2022-11-15T14:56:20;7.53;;;3.00;;
70715;SDS011;59053;50.832;12.882;2022-11-15T14:58:47;6.43;;;3.00;;
70715;SDS011;59053;50.832;12.882;2022-11-15T15:01:19;9.70;;;3.10;;
70715;SDS011;59053;50.832;12.882;2022-11-15T15:03:45;5.47;;;2.95;;
70715;SDS011;59053;50.832;12.882;2022-11-15T15:06:12;9.25;;;3.08;;
70715;SDS011;59053;50.832;12.882;2022-11-15T15:08:41;7.53;;;2.80;;
70715;SDS011;59053;50.832;12.882;2022-11-15T15:11:12;8.00;;;3.20;;
70715;SDS011;59053;50.832;12.882;2022-11-15T15:13:38;7.10;;;2.85;;
70715;SDS011;59053;50.832;12.882;2022-11-15T15:16:04;10.27;;;3.47;;
70715;SDS011;59053;50.832;12.882;2022-11-15T15:18:29;8.93;;;3.63;;
70715;SDS011;59053;50.832;12.882;2022-11-15T15:20:58;9.20;;;3.80;;
70715;SDS011;59053;50.832;12.882;2022-11-15T15:23:32;9.35;;;3.45;;
70715;SDS011;59053;50.832;12.882;2022-11-15T15:25:58;10.88;;;3.95;;
70715;SDS011;59053;50.832;12.882;2022-11-15T15:28:23;10.87;;;3.70;;
70715;SDS011;59053;50.832;12.882;2022-11-15T15:30:48;14.07;;;4.30;;
70715;SDS011;59053;50.832;12.882;2022-11-15T15:33:14;13.07;;;4.10;;
70715;SDS011;59053;50.832;12.882;2022-11-15T15:35:40;12.53;;;4.00;;
70715;SDS011;59053;50.832;12.882;2022-11-15T15:38:05;10.23;;;4.27;;
70715;SDS011;59053;50.832;12.882;2022-11-15T15:40:31;12.85;;;4.40;;
70715;SDS011;59053;50.832;12.882;2022-11-15T15:42:57;10.63;;;4.40;;
70715;SDS011;59053;50.832;12.882;2022-11-15T15:45:22;12.45;;;4.10;;
70715;SDS011;59053;50.832;12.882;2022-11-15T15:47:47;15.00;;;4.57;;
70715;SDS011;59053;50.832;12.882;2022-11-15T15:52:41;14.63;;;5.17;;
70715;SDS011;59053;50.832;12.882;2022-11-15T15:55:07;12.60;;;4.33;;
70715;SDS011;59053;50.832;12.882;2022-11-15T15:57:32;15.30;;;4.50;;
70715;SDS011;59053;50.832;12.882;2022-11-15T16:00:00;10.33;;;4.17;;
70715;SDS011;59053;50.832;12.882;2022-11-15T16:05:12;10.15;;;4.47;;
70715;SDS011;59053;50.832;12.882;2022-11-15T16:07:38;8.83;;;3.70;;
70715;SDS011;59053;50.832;12.882;2022-11-15T16:12:38;9.73;;;3.70;;
70715;SDS011;59053;50.832;12.882;2022-11-15T16:15:04;10.40;;;4.53;;
70715;SDS011;59053;50.832;12.882;2022-11-15T16:17:33;10.87;;;4.40;;
70715;SDS011;59053;50.832;12.882;2022-11-15T16:20:00;15.82;;;4.75;;
70715;SDS011;59053;50.832;12.882;2022-11-15T16:25:17;29.50;;;10.93;;
70715;SDS011;59053;50.832;12.882;2022-11-15T16:27:49;29.42;;;9.82;;
70715;SDS011;59053;50.832;12.882;2022-11-15T16:30:15;16.10;;;6.60;;
70715;SDS011;59053;50.832;12.882;2022-11-15T16:32:40;21.80;;;8.07;;
70715;SDS011;59053;50.832;12.882;2022-11-15T16:35:19;16.50;;;6.87;;
70715;SDS011;59053;50.832;12.882;2022-11-15T16:37:44;13.37;;;5.20;;
70715;SDS011;59053;50.832;12.882;2022-11-15T16:42:42;14.30;;;5.97;;
70715;SDS011;59053;50.832;12.882;2022-11-15T16:45:10;18.03;;;7.30;;
70715;SDS011;59053;50.832;12.882;2022-11-15T16:47:35;18.17;;;6.00;;
70715;SDS011;59053;50.832;12.882;2022-11-15T16:50:01;11.97;;;5.07;;
70715;SDS011;59053;50.832;12.882;2022-11-15T16:52:28;14.17;;;5.10;;
70715;SDS011;59053;50.832;12.882;2022-11-15T16:54:53;20.10;;;6.55;;
70715;SDS011;59053;50.832;12.882;2022-11-15T17:00:35;15.87;;;6.63;;
70715;SDS011;59053;50.832;12.882;2022-11-15T17:03:00;10.77;;;5.27;;
70715;SDS011;59053;50.832;12.882;2022-11-15T17:05:45;12.07;;;5.78;;
70715;SDS011;59053;50.832;12.882;2022-11-15T17:08:10;16.40;;;6.00;;
70715;SDS011;59053;50.832;12.882;2022-11-15T17:10:37;18.67;;;6.00;;
70715;SDS011;59053;50.832;12.882;2022-11-15T17:13:03;14.27;;;6.53;;
70715;SDS011;59053;50.832;12.882;2022-11-15T17:15:28;17.37;;;6.43;;
70715;SDS011;59053;50.832;12.882;2022-11-15T17:17:53;15.43;;;6.50;;
70715;SDS011;59053;50.832;12.882;2022-11-15T17:20:20;14.27;;;6.27;;
70715;SDS011;59053;50.832;12.882;2022-11-15T17:22:45;19.13;;;6.80;;
70715;SDS011;59053;50.832;12.882;2022-11-15T17:25:11;17.15;;;7.57;;
70715;SDS011;59053;50.832;12.882;2022-11-15T17:27:38;22.87;;;7.70;;
70715;SDS011;59053;50.832;12.882;2022-11-15T17:30:10;19.50;;;7.03;;
70715;SDS011;59053;50.832;12.882;2022-11-15T17:32:36;18.83;;;8.07;;
70715;SDS011;59053;50.832;12.882;2022-11-15T17:35:04;23.87;;;9.40;;
70715;SDS011;59053;50.832;12.882;2022-11-15T17:37:31;24.23;;;10.15;;
70715;SDS011;59053;50.832;12.882;2022-11-15T17:39:56;27.50;;;11.10;;
70715;SDS011;59053;50.832;12.882;2022-11-15T17:42:32;32.47;;;12.47;;
70715;SDS011;59053;50.832;12.882;2022-11-15T17:44:57;28.80;;;12.05;;
70715;SDS011;59053;50.832;12.882;2022-11-15T17:47:22;50.43;;;19.60;;
70715;SDS011;59053;50.832;12.882;2022-11-15T17:50:00;40.13;;;16.27;;
70715;SDS011;59053;50.832;12.882;2022-11-15T17:52:26;40.20;;;14.93;;
70715;SDS011;59053;50.832;12.882;2022-11-15T17:54:51;41.53;;;16.50;;
70715;SDS011;59053;50.832;12.882;2022-11-15T17:57:17;35.57;;;13.63;;
70715;SDS011;59053;50.832;12.882;2022-11-15T17:59:43;36.85;;;13.15;;
70715;SDS011;59053;50.832;12.882;2022-11-15T18:02:11;31.27;;;13.20;;
70715;SDS011;59053;50.832;12.882;2022-11-15T18:04:51;33.60;;;13.43;;
70715;SDS011;59053;50.832;12.882;2022-11-15T18:07:22;32.28;;;12.65;;
70715;SDS011;59053;50.832;12.882;2022-11-15T18:09:47;31.87;;;12.77;;
70715;SDS011;59053;50.832;12.882;2022-11-15T18:12:15;25.02;;;10.70;;
70715;SDS011;59053;50.832;12.882;2022-11-15T18:14:55;17.83;;;7.90;;
70715;SDS011;59053;50.832;12.882;2022-11-15T18:17:25;22.08;;;8.73;;
70715;SDS011;59053;50.832;12.882;2022-11-15T18:22:30;23.83;;;9.70;;
70715;SDS011;59053;50.832;12.882;2022-11-15T18:24:56;19.37;;;8.60;;
70715;SDS011;59053;50.832;12.882;2022-11-15T18:27:29;18.65;;;7.47;;
70715;SDS011;59053;50.832;12.882;2022-11-15T18:29:54;15.68;;;7.07;;
70715;SDS011;59053;50.832;12.882;2022-11-15T18:32:23;13.15;;;6.55;;
70715;SDS011;59053;50.832;12.882;2022-11-15T18:35:02;15.15;;;6.40;;
70715;SDS011;59053;50.832;12.882;2022-11-15T18:37:32;18.87;;;6.57;;
70715;SDS011;59053;50.832;12.882;2022-11-15T18:40:00;19.95;;;7.60;;